Main page
METAR-TAF:

METAR-TAF

Airports :

Casement Aerodrome

Dublin, Ireland

latitude: 53-18-06N, longitude: 6-27-04W, elevation: 97 m

Current weather observation

The report was made 35 minutes ago, at 09:30 UTC
Wind 7 kt from the North
Temperature 13°C
Humidity 67%
Pressure 1021 hPa
Visibility 10 km or more
Few clouds at a height of 2400 ft
Scattered clouds at a height of 3200 ft
Broken clouds at a height of 4200 ft

METAR: EIME 120930Z 35007KT 9999 FEW024 SCT032 BKN042 13/07 Q1021

Time: 11:05 (10:05 UTC)

Forecast

The report was made 2 hours and 5 minutes ago, at 08:00 UTC
Forecast valid from 12 at 09 UTC to 12 at 18 UTC
Wind 6 kt from the North/Northwest
Visibility 10 km or more
Few clouds at a height of 1900 ft
Broken clouds at a height of 3700 ft

TAF: EIME 120800Z 1209/1218 34006KT 9999 FEW019 BKN037

Weather observations and forecasts of more than 4000 airports (METAR and TAF reports).

The available stations are represented by yellow and red dots on the map.

Hover mouse over dot to see the name of the station.

Then click to see weather observations and forecasts.

To change the map : click on the green buttons with a black cross to zoom in, on the green button with a dash to zoom out, or on the green arrows for adjacent maps.


METAR-TAF: